sensor_id;sensor_type;location;lat;lon;timestamp;pressure;altitude;pressure_sealevel;temperature;humidity
66273;BME280;58450;52.150;4.466;2023-06-24T00:02:26;102434.59;;;19.18;100.00
66273;BME280;58450;52.150;4.466;2023-06-24T00:04:54;102432.47;;;19.14;100.00
66273;BME280;58450;52.150;4.466;2023-06-24T00:07:26;102435.19;;;19.07;100.00
66273;BME280;58450;52.150;4.466;2023-06-24T00:09:53;102440.22;;;19.10;100.00
66273;BME280;58450;52.150;4.466;2023-06-24T00:12:21;102440.44;;;19.15;100.00
66273;BME280;58450;52.150;4.466;2023-06-24T00:14:50;102447.34;;;19.04;100.00
66273;BME280;58450;52.150;4.466;2023-06-24T00:17:19;102441.91;;;19.11;100.00
66273;BME280;58450;52.150;4.466;2023-06-24T00:19:46;102439.34;;;19.03;100.00
66273;BME280;58450;52.150;4.466;2023-06-24T00:22:14;102442.94;;;19.03;100.00
66273;BME280;58450;52.150;4.466;2023-06-24T00:24:42;102441.88;;;18.98;100.00
66273;BME280;58450;52.150;4.466;2023-06-24T00:27:09;102447.09;;;18.93;100.00
66273;BME280;58450;52.150;4.466;2023-06-24T00:29:37;102445.66;;;18.97;100.00
66273;BME280;58450;52.150;4.466;2023-06-24T00:32:06;102439.94;;;18.92;100.00
66273;BME280;58450;52.150;4.466;2023-06-24T00:34:36;102444.13;;;18.87;100.00
66273;BME280;58450;52.150;4.466;2023-06-24T00:37:03;102438.44;;;18.89;100.00
66273;BME280;58450;52.150;4.466;2023-06-24T00:39:31;102448.09;;;18.85;100.00
66273;BME280;58450;52.150;4.466;2023-06-24T00:41:59;102449.34;;;18.82;100.00
66273;BME280;58450;52.150;4.466;2023-06-24T00:44:27;102449.75;;;18.86;100.00
66273;BME280;58450;52.150;4.466;2023-06-24T00:46:55;102435.91;;;18.81;100.00
66273;BME280;58450;52.150;4.466;2023-06-24T00:49:22;102440.53;;;18.80;100.00
66273;BME280;58450;52.150;4.466;2023-06-24T00:51:51;102435.72;;;18.82;100.00
66273;BME280;58450;52.150;4.466;2023-06-24T00:54:19;102441.16;;;18.82;100.00
66273;BME280;58450;52.150;4.466;2023-06-24T00:56:46;102435.50;;;18.84;100.00
66273;BME280;58450;52.150;4.466;2023-06-24T00:59:15;102429.41;;;18.82;100.00
66273;BME280;58450;52.150;4.466;2023-06-24T01:01:44;102427.94;;;18.79;100.00
66273;BME280;58450;52.150;4.466;2023-06-24T01:04:13;102434.78;;;18.61;100.00
66273;BME280;58450;52.150;4.466;2023-06-24T01:06:42;102431.16;;;18.54;100.00
66273;BME280;58450;52.150;4.466;2023-06-24T01:09:12;102428.44;;;18.54;100.00
66273;BME280;58450;52.150;4.466;2023-06-24T01:11:40;102419.44;;;18.54;100.00
66273;BME280;58450;52.150;4.466;2023-06-24T01:14:08;102433.25;;;18.52;100.00
66273;BME280;58450;52.150;4.466;2023-06-24T01:16:41;102432.59;;;18.50;100.00
66273;BME280;58450;52.150;4.466;2023-06-24T01:19:33;102428.59;;;18.46;100.00
66273;BME280;58450;52.150;4.466;2023-06-24T01:22:35;102427.13;;;18.43;100.00
66273;BME280;58450;52.150;4.466;2023-06-24T01:25:37;102429.38;;;18.33;100.00
66273;BME280;58450;52.150;4.466;2023-06-24T01:28:26;102422.88;;;18.34;100.00
66273;BME280;58450;52.150;4.466;2023-06-24T01:31:25;102420.97;;;18.28;100.00
66273;BME280;58450;52.150;4.466;2023-06-24T01:34:03;102408.56;;;18.25;100.00
66273;BME280;58450;52.150;4.466;2023-06-24T01:36:38;102414.00;;;18.25;100.00
66273;BME280;58450;52.150;4.466;2023-06-24T01:39:12;102412.31;;;18.24;100.00
66273;BME280;58450;52.150;4.466;2023-06-24T01:41:51;102412.31;;;18.24;100.00
66273;BME280;58450;52.150;4.466;2023-06-24T01:44:25;102415.06;;;18.24;100.00
66273;BME280;58450;52.150;4.466;2023-06-24T01:46:58;102417.59;;;18.26;100.00
66273;BME280;58450;52.150;4.466;2023-06-24T01:49:29;102421.34;;;18.25;100.00
66273;BME280;58450;52.150;4.466;2023-06-24T01:51:59;102422.59;;;18.22;100.00
66273;BME280;58450;52.150;4.466;2023-06-24T01:54:28;102419.69;;;18.24;100.00
66273;BME280;58450;52.150;4.466;2023-06-24T01:56:59;102420.91;;;18.21;100.00
66273;BME280;58450;52.150;4.466;2023-06-24T01:59:29;102420.47;;;18.17;100.00
66273;BME280;58450;52.150;4.466;2023-06-24T02:02:00;102420.22;;;18.12;100.00
66273;BME280;58450;52.150;4.466;2023-06-24T02:04:31;102426.03;;;18.02;100.00
66273;BME280;58450;52.150;4.466;2023-06-24T02:07:02;102413.66;;;18.00;100.00
66273;BME280;58450;52.150;4.466;2023-06-24T02:09:32;102408.56;;;17.97;100.00
66273;BME280;58450;52.150;4.466;2023-06-24T02:12:02;102405.66;;;17.98;100.00
66273;BME280;58450;52.150;4.466;2023-06-24T02:14:32;102404.78;;;17.98;100.00
66273;BME280;58450;52.150;4.466;2023-06-24T02:17:05;102400.22;;;17.98;100.00
66273;BME280;58450;52.150;4.466;2023-06-24T02:19:36;102397.66;;;17.97;100.00
66273;BME280;58450;52.150;4.466;2023-06-24T02:22:07;102403.31;;;17.95;100.00
66273;BME280;58450;52.150;4.466;2023-06-24T02:24:37;102397.41;;;17.92;100.00
66273;BME280;58450;52.150;4.466;2023-06-24T02:27:07;102401.38;;;17.89;100.00
66273;BME280;58450;52.150;4.466;2023-06-24T02:29:37;102396.13;;;17.87;100.00
66273;BME280;58450;52.150;4.466;2023-06-24T02:32:09;102393.63;;;17.86;100.00
66273;BME280;58450;52.150;4.466;2023-06-24T02:34:37;102398.84;;;17.87;100.00
66273;BME280;58450;52.150;4.466;2023-06-24T02:37:05;102393.41;;;17.87;100.00
66273;BME280;58450;52.150;4.466;2023-06-24T02:39:33;102393.41;;;17.87;100.00
66273;BME280;58450;52.150;4.466;2023-06-24T02:42:01;102387.13;;;17.87;100.00
66273;BME280;58450;52.150;4.466;2023-06-24T02:44:29;102388.16;;;17.86;100.00
66273;BME280;58450;52.150;4.466;2023-06-24T02:46:56;102391.72;;;17.86;100.00
66273;BME280;58450;52.150;4.466;2023-06-24T02:49:27;102389.22;;;17.85;100.00
66273;BME280;58450;52.150;4.466;2023-06-24T02:51:55;102393.00;;;17.91;100.00
66273;BME280;58450;52.150;4.466;2023-06-24T02:54:23;102389.88;;;17.94;100.00
66273;BME280;58450;52.150;4.466;2023-06-24T02:56:51;102391.38;;;17.96;100.00
66273;BME280;58450;52.150;4.466;2023-06-24T02:59:22;102376.91;;;17.96;100.00
66273;BME280;58450;52.150;4.466;2023-06-24T03:01:50;102377.53;;;17.91;100.00
66273;BME280;58450;52.150;4.466;2023-06-24T03:04:18;102374.16;;;17.89;100.00
66273;BME280;58450;52.150;4.466;2023-06-24T03:06:49;102381.44;;;17.82;100.00
66273;BME280;58450;52.150;4.466;2023-06-24T03:09:18;102376.03;;;17.88;100.00
66273;BME280;58450;52.150;4.466;2023-06-24T03:11:46;102379.69;;;17.74;100.00
66273;BME280;58450;52.150;4.466;2023-06-24T03:14:13;102380.06;;;17.71;100.00
66273;BME280;58450;52.150;4.466;2023-06-24T03:16:41;102387.19;;;17.72;100.00
66273;BME280;58450;52.150;4.466;2023-06-24T03:19:09;102391.81;;;17.71;100.00
66273;BME280;58450;52.150;4.466;2023-06-24T03:21:36;102392.00;;;17.70;100.00
66273;BME280;58450;52.150;4.466;2023-06-24T03:24:05;102386.56;;;17.70;100.00
66273;BME280;58450;52.150;4.466;2023-06-24T03:26:34;102386.88;;;17.82;100.00
66273;BME280;58450;52.150;4.466;2023-06-24T03:29:02;102390.13;;;17.70;100.00
66273;BME280;58450;52.150;4.466;2023-06-24T03:31:30;102380.28;;;17.69;100.00
66273;BME280;58450;52.150;4.466;2023-06-24T03:33:58;102378.84;;;17.73;100.00
66273;BME280;58450;52.150;4.466;2023-06-24T03:36:25;102384.59;;;17.85;100.00
66273;BME280;58450;52.150;4.466;2023-06-24T03:38:53;102380.19;;;17.84;100.00
66273;BME280;58450;52.150;4.466;2023-06-24T03:41:22;102378.50;;;17.83;100.00
66273;BME280;58450;52.150;4.466;2023-06-24T03:43:51;102382.91;;;17.84;100.00
66273;BME280;58450;52.150;4.466;2023-06-24T03:46:19;102384.19;;;17.88;100.00
66273;BME280;58450;52.150;4.466;2023-06-24T03:48:46;102384.00;;;17.90;100.00
66273;BME280;58450;52.150;4.466;2023-06-24T03:51:14;102387.13;;;17.87;100.00
66273;BME280;58450;52.150;4.466;2023-06-24T03:53:41;102397.81;;;17.88;100.00
66273;BME280;58450;52.150;4.466;2023-06-24T03:56:09;102395.94;;;17.89;100.00
66273;BME280;58450;52.150;4.466;2023-06-24T03:58:38;102401.38;;;17.89;100.00
66273;BME280;58450;52.150;4.466;2023-06-24T04:01:06;102406.44;;;17.92;100.00
66273;BME280;58450;52.150;4.466;2023-06-24T04:03:35;102406.44;;;17.92;100.00
66273;BME280;58450;52.150;4.466;2023-06-24T04:06:02;102398.66;;;17.89;100.00
66273;BME280;58450;52.150;4.466;2023-06-24T04:08:30;102404.13;;;17.89;100.00
66273;BME280;58450;52.150;4.466;2023-06-24T04:10:58;102394.28;;;17.95;100.00
66273;BME280;58450;52.150;4.466;2023-06-24T04:13:26;102402.16;;;18.05;100.00
66273;BME280;58450;52.150;4.466;2023-06-24T04:15:55;102405.97;;;18.10;100.00
66273;BME280;58450;52.150;4.466;2023-06-24T04:18:23;102407.69;;;18.18;100.00
66273;BME280;58450;52.150;4.466;2023-06-24T04:20:50;102401.88;;;18.28;100.00
66273;BME280;58450;52.150;4.466;2023-06-24T04:23:18;102403.59;;;18.36;100.00
66273;BME280;58450;52.150;4.466;2023-06-24T04:25:46;102405.13;;;18.45;100.00
66273;BME280;58450;52.150;4.466;2023-06-24T04:28:13;102404.00;;;18.33;100.00
66273;BME280;58450;52.150;4.466;2023-06-24T04:30:41;102400.84;;;18.29;100.00
66273;BME280;58450;52.150;4.466;2023-06-24T04:33:10;102397.22;;;18.22;100.00
66273;BME280;58450;52.150;4.466;2023-06-24T04:35:37;102400.47;;;18.04;100.00
66273;BME280;58450;52.150;4.466;2023-06-24T04:38:05;102399.97;;;18.22;100.00
66273;BME280;58450;52.150;4.466;2023-06-24T04:40:33;102411.44;;;18.17;100.00
66273;BME280;58450;52.150;4.466;2023-06-24T04:43:00;102410.84;;;18.22;100.00
66273;BME280;58450;52.150;4.466;2023-06-24T04:45:28;102418.38;;;18.20;100.00
66273;BME280;58450;52.150;4.466;2023-06-24T04:47:56;102422.31;;;18.10;100.00
66273;BME280;58450;52.150;4.466;2023-06-24T04:50:25;102422.38;;;17.95;100.00
66273;BME280;58450;52.150;4.466;2023-06-24T04:52:53;102425.03;;;18.10;100.00
66273;BME280;58450;52.150;4.466;2023-06-24T04:55:23;102422.09;;;18.12;100.00
66273;BME280;58450;52.150;4.466;2023-06-24T04:57:51;102428.91;;;18.29;100.00
66273;BME280;58450;52.150;4.466;2023-06-24T05:00:19;102426.00;;;18.31;100.00
66273;BME280;58450;52.150;4.466;2023-06-24T05:02:49;102429.78;;;18.30;100.00
66273;BME280;58450;52.150;4.466;2023-06-24T05:05:16;102424.50;;;18.28;100.00
66273;BME280;58450;52.150;4.466;2023-06-24T05:07:46;102424.00;;;18.46;100.00
66273;BME280;58450;52.150;4.466;2023-06-24T05:10:14;102423.22;;;18.59;100.00
66273;BME280;58450;52.150;4.466;2023-06-24T05:12:41;102426.19;;;18.65;100.00
66273;BME280;58450;52.150;4.466;2023-06-24T05:15:10;102427.88;;;18.66;100.00
66273;BME280;58450;52.150;4.466;2023-06-24T05:17:37;102425.34;;;18.64;100.00
66273;BME280;58450;52.150;4.466;2023-06-24T05:20:08;102437.97;;;18.72;100.00
66273;BME280;58450;52.150;4.466;2023-06-24T05:22:36;102433.34;;;18.72;100.00
66273;BME280;58450;52.150;4.466;2023-06-24T05:25:05;102422.91;;;18.83;100.00
66273;BME280;58450;52.150;4.466;2023-06-24T05:27:33;102427.94;;;18.86;100.00
66273;BME280;58450;52.150;4.466;2023-06-24T05:30:01;102432.41;;;18.94;100.00
66273;BME280;58450;52.150;4.466;2023-06-24T05:32:28;102422.03;;;18.75;100.00
66273;BME280;58450;52.150;4.466;2023-06-24T05:34:56;102428.41;;;18.89;100.00
66273;BME280;58450;52.150;4.466;2023-06-24T05:37:23;102427.63;;;19.09;100.00
66273;BME280;58450;52.150;4.466;2023-06-24T05:39:51;102434.41;;;19.27;100.00
66273;BME280;58450;52.150;4.466;2023-06-24T05:42:20;102429.13;;;19.18;100.00
66273;BME280;58450;52.150;4.466;2023-06-24T05:44:49;102439.81;;;19.13;100.00
66273;BME280;58450;52.150;4.466;2023-06-24T05:47:16;102443.22;;;19.22;100.00
66273;BME280;58450;52.150;4.466;2023-06-24T05:49:44;102440.25;;;19.24;100.00
66273;BME280;58450;52.150;4.466;2023-06-24T05:52:11;102439.25;;;19.31;100.00
66273;BME280;58450;52.150;4.466;2023-06-24T05:54:39;102444.28;;;19.41;100.00
66273;BME280;58450;52.150;4.466;2023-06-24T05:57:07;102448.94;;;19.47;100.00
66273;BME280;58450;52.150;4.466;2023-06-24T05:59:37;102452.50;;;19.55;100.00
66273;BME280;58450;52.150;4.466;2023-06-24T06:02:05;102457.97;;;19.75;100.00
66273;BME280;58450;52.150;4.466;2023-06-24T06:04:33;102457.38;;;20.00;100.00
66273;BME280;58450;52.150;4.466;2023-06-24T06:07:00;102453.16;;;20.11;100.00
66273;BME280;58450;52.150;4.466;2023-06-24T06:09:28;102445.41;;;20.14;100.00
66273;BME280;58450;52.150;4.466;2023-06-24T06:11:55;102448.13;;;20.28;100.00
66273;BME280;58450;52.150;4.466;2023-06-24T06:14:23;102447.19;;;20.54;100.00
66273;BME280;58450;52.150;4.466;2023-06-24T06:16:52;102444.81;;;20.78;100.00
66273;BME280;58450;52.150;4.466;2023-06-24T06:19:19;102447.16;;;20.61;100.00
66273;BME280;58450;52.150;4.466;2023-06-24T06:21:48;102451.31;;;20.77;100.00
66273;BME280;58450;52.150;4.466;2023-06-24T06:24:16;102446.06;;;20.75;100.00
66273;BME280;58450;52.150;4.466;2023-06-24T06:26:44;102439.59;;;20.63;100.00
66273;BME280;58450;52.150;4.466;2023-06-24T06:29:12;102449.84;;;20.81;100.00
66273;BME280;58450;52.150;4.466;2023-06-24T06:31:39;102452.00;;;20.59;100.00
66273;BME280;58450;52.150;4.466;2023-06-24T06:34:08;102441.06;;;20.65;100.00
66273;BME280;58450;52.150;4.466;2023-06-24T06:36:36;102448.25;;;21.12;100.00
66273;BME280;58450;52.150;4.466;2023-06-24T06:39:03;102449.00;;;21.26;100.00
66273;BME280;58450;52.150;4.466;2023-06-24T06:41:31;102448.91;;;21.39;100.00
66273;BME280;58450;52.150;4.466;2023-06-24T06:43:58;102449.00;;;21.26;100.00
66273;BME280;58450;52.150;4.466;2023-06-24T06:46:27;102446.59;;;21.36;100.00
66273;BME280;58450;52.150;4.466;2023-06-24T06:48:55;102451.13;;;21.56;100.00
66273;BME280;58450;52.150;4.466;2023-06-24T06:51:24;102454.13;;;21.16;100.00
66273;BME280;58450;52.150;4.466;2023-06-24T06:53:51;102455.53;;;21.25;100.00
66273;BME280;58450;52.150;4.466;2023-06-24T06:56:22;102456.44;;;21.12;100.00
66273;BME280;58450;52.150;4.466;2023-06-24T06:58:51;102460.09;;;21.70;100.00
66273;BME280;58450;52.150;4.466;2023-06-24T07:01:18;102457.88;;;21.53;100.00
66273;BME280;58450;52.150;4.466;2023-06-24T07:03:46;102453.94;;;22.00;100.00
66273;BME280;58450;52.150;4.466;2023-06-24T07:06:17;102457.13;;;22.41;100.00
66273;BME280;58450;52.150;4.466;2023-06-24T07:08:46;102455.72;;;22.13;100.00
66273;BME280;58450;52.150;4.466;2023-06-24T07:11:14;102455.22;;;22.41;100.00
66273;BME280;58450;52.150;4.466;2023-06-24T07:13:42;102465.44;;;22.34;100.00
66273;BME280;58450;52.150;4.466;2023-06-24T07:16:10;102459.50;;;22.93;100.00
66273;BME280;58450;52.150;4.466;2023-06-24T07:18:38;102451.69;;;23.39;100.00
66273;BME280;58450;52.150;4.466;2023-06-24T07:21:06;102447.53;;;23.37;100.00
66273;BME280;58450;52.150;4.466;2023-06-24T07:23:33;102448.69;;;23.41;100.00
66273;BME280;58450;52.150;4.466;2023-06-24T07:26:02;102449.25;;;23.00;100.00
66273;BME280;58450;52.150;4.466;2023-06-24T07:28:30;102447.69;;;23.66;100.00
66273;BME280;58450;52.150;4.466;2023-06-24T07:30:57;102445.88;;;23.48;100.00
66273;BME280;58450;52.150;4.466;2023-06-24T07:33:25;102449.41;;;23.90;100.00
66273;BME280;58450;52.150;4.466;2023-06-24T07:35:53;102452.22;;;23.60;100.00
66273;BME280;58450;52.150;4.466;2023-06-24T07:38:20;102445.84;;;24.14;100.00
66273;BME280;58450;52.150;4.466;2023-06-24T07:40:48;102451.22;;;24.09;100.00
66273;BME280;58450;52.150;4.466;2023-06-24T07:43:17;102448.56;;;24.14;100.00
66273;BME280;58450;52.150;4.466;2023-06-24T07:45:45;102454.03;;;23.90;100.00
66273;BME280;58450;52.150;4.466;2023-06-24T07:48:12;102454.44;;;24.29;100.00
66273;BME280;58450;52.150;4.466;2023-06-24T07:50:40;102460.38;;;23.79;100.00
66273;BME280;58450;52.150;4.466;2023-06-24T07:53:08;102455.25;;;24.30;100.00
66273;BME280;58450;52.150;4.466;2023-06-24T07:55:35;102455.84;;;24.44;100.00
66273;BME280;58450;52.150;4.466;2023-06-24T07:58:03;102454.13;;;24.78;100.00
66273;BME280;58450;52.150;4.466;2023-06-24T08:00:33;102454.75;;;24.98;100.00
66273;BME280;58450;52.150;4.466;2023-06-24T08:03:01;102458.31;;;24.69;100.00
66273;BME280;58450;52.150;4.466;2023-06-24T08:05:28;102462.06;;;24.39;100.00
66273;BME280;58450;52.150;4.466;2023-06-24T08:07:56;102459.97;;;24.70;100.00
66273;BME280;58450;52.150;4.466;2023-06-24T08:10:23;102458.00;;;24.30;100.00
66273;BME280;58450;52.150;4.466;2023-06-24T08:12:51;102458.66;;;25.14;100.00
66273;BME280;58450;52.150;4.466;2023-06-24T08:15:19;102456.00;;;24.13;100.00
66273;BME280;58450;52.150;4.466;2023-06-24T08:17:51;102450.44;;;24.61;100.00
66273;BME280;58450;52.150;4.466;2023-06-24T08:20:19;102463.38;;;23.89;100.00
66273;BME280;58450;52.150;4.466;2023-06-24T08:22:47;102458.94;;;24.59;100.00
66273;BME280;58450;52.150;4.466;2023-06-24T08:25:15;102456.94;;;24.43;100.00
66273;BME280;58450;52.150;4.466;2023-06-24T08:27:43;102455.00;;;24.55;100.00
66273;BME280;58450;52.150;4.466;2023-06-24T08:30:13;102454.81;;;24.86;100.00
66273;BME280;58450;52.150;4.466;2023-06-24T08:32:41;102454.91;;;24.26;100.00
66273;BME280;58450;52.150;4.466;2023-06-24T08:35:10;102455.22;;;24.54;100.00
66273;BME280;58450;52.150;4.466;2023-06-24T08:37:38;102452.38;;;24.48;100.00
66273;BME280;58450;52.150;4.466;2023-06-24T08:40:07;102448.72;;;25.13;100.00
66273;BME280;58450;52.150;4.466;2023-06-24T08:42:35;102446.63;;;25.49;100.00
66273;BME280;58450;52.150;4.466;2023-06-24T08:45:03;102438.25;;;25.44;100.00
66273;BME280;58450;52.150;4.466;2023-06-24T08:47:32;102446.75;;;24.96;100.00
66273;BME280;58450;52.150;4.466;2023-06-24T08:50:03;102441.25;;;24.96;100.00
66273;BME280;58450;52.150;4.466;2023-06-24T08:52:35;102448.63;;;25.07;100.00
66273;BME280;58450;52.150;4.466;2023-06-24T08:55:06;102445.06;;;24.54;100.00
66273;BME280;58450;52.150;4.466;2023-06-24T08:57:40;102448.31;;;25.21;100.00
66273;BME280;58450;52.150;4.466;2023-06-24T09:00:08;102443.72;;;25.73;100.00
66273;BME280;58450;52.150;4.466;2023-06-24T09:02:36;102443.25;;;26.15;100.00
66273;BME280;58450;52.150;4.466;2023-06-24T09:05:05;102451.81;;;25.16;100.00
66273;BME280;58450;52.150;4.466;2023-06-24T09:07:36;102443.69;;;25.90;100.00
66273;BME280;58450;52.150;4.466;2023-06-24T09:10:04;102451.16;;;25.55;100.00
66273;BME280;58450;52.150;4.466;2023-06-24T09:12:34;102446.31;;;25.33;100.00
66273;BME280;58450;52.150;4.466;2023-06-24T09:15:03;102445.59;;;24.80;100.00
66273;BME280;58450;52.150;4.466;2023-06-24T09:17:31;102448.84;;;24.77;100.00
66273;BME280;58450;52.150;4.466;2023-06-24T09:20:03;102446.38;;;25.85;100.00
66273;BME280;58450;52.150;4.466;2023-06-24T09:22:31;102447.41;;;25.32;100.00
66273;BME280;58450;52.150;4.466;2023-06-24T09:25:02;102447.22;;;25.68;100.00
66273;BME280;58450;52.150;4.466;2023-06-24T09:27:31;102437.34;;;25.72;100.00
66273;BME280;58450;52.150;4.466;2023-06-24T09:29:59;102448.38;;;26.06;100.00
66273;BME280;58450;52.150;4.466;2023-06-24T09:32:29;102444.47;;;26.86;100.00
66273;BME280;58450;52.150;4.466;2023-06-24T09:34:57;102447.66;;;26.78;99.09
66273;BME280;58450;52.150;4.466;2023-06-24T09:37:25;102446.09;;;26.20;100.00
66273;BME280;58450;52.150;4.466;2023-06-24T09:39:56;102446.31;;;26.36;98.38
66273;BME280;58450;52.150;4.466;2023-06-24T09:42:25;102450.81;;;26.42;98.30
66273;BME280;58450;52.150;4.466;2023-06-24T09:44:53;102445.22;;;25.80;100.00
66273;BME280;58450;52.150;4.466;2023-06-24T09:47:21;102444.13;;;25.81;100.00
66273;BME280;58450;52.150;4.466;2023-06-24T09:49:51;102449.75;;;26.09;99.99
66273;BME280;58450;52.150;4.466;2023-06-24T09:52:20;102438.88;;;26.59;97.95
66273;BME280;58450;52.150;4.466;2023-06-24T09:54:51;102431.38;;;27.31;95.22
66273;BME280;58450;52.150;4.466;2023-06-24T09:57:24;102431.66;;;25.96;98.77
66273;BME280;58450;52.150;4.466;2023-06-24T09:59:56;102437.69;;;25.93;97.45
66273;BME280;58450;52.150;4.466;2023-06-24T10:02:25;102443.47;;;25.91;92.58
66273;BME280;58450;52.150;4.466;2023-06-24T10:04:54;102433.75;;;26.90;90.80
66273;BME280;58450;52.150;4.466;2023-06-24T10:07:22;102430.59;;;27.36;90.33
66273;BME280;58450;52.150;4.466;2023-06-24T10:09:49;102431.56;;;27.19;93.99
66273;BME280;58450;52.150;4.466;2023-06-24T10:12:17;102435.81;;;27.32;97.79
66273;BME280;58450;52.150;4.466;2023-06-24T10:14:47;102426.03;;;27.84;97.32
66273;BME280;58450;52.150;4.466;2023-06-24T10:17:15;102425.59;;;27.05;99.09
66273;BME280;58450;52.150;4.466;2023-06-24T10:19:44;102425.56;;;27.27;100.00
66273;BME280;58450;52.150;4.466;2023-06-24T10:22:12;102433.41;;;27.13;98.51
66273;BME280;58450;52.150;4.466;2023-06-24T10:24:41;102426.06;;;26.97;100.00
66273;BME280;58450;52.150;4.466;2023-06-24T10:27:14;102424.31;;;27.13;100.00
66273;BME280;58450;52.150;4.466;2023-06-24T10:29:46;102411.66;;;27.17;100.00
66273;BME280;58450;52.150;4.466;2023-06-24T10:32:15;102416.66;;;27.20;99.59
66273;BME280;58450;52.150;4.466;2023-06-24T10:34:45;102408.94;;;27.22;96.61
66273;BME280;58450;52.150;4.466;2023-06-24T10:37:19;102412.53;;;26.51;100.00
66273;BME280;58450;52.150;4.466;2023-06-24T10:39:50;102420.00;;;25.55;100.00
66273;BME280;58450;52.150;4.466;2023-06-24T10:42:29;102420.22;;;25.87;100.00
66273;BME280;58450;52.150;4.466;2023-06-24T10:45:16;102417.25;;;26.11;100.00
66273;BME280;58450;52.150;4.466;2023-06-24T10:47:46;102405.41;;;26.77;100.00
66273;BME280;58450;52.150;4.466;2023-06-24T10:50:17;102412.88;;;26.32;100.00
66273;BME280;58450;52.150;4.466;2023-06-24T10:52:47;102405.41;;;26.55;100.00
66273;BME280;58450;52.150;4.466;2023-06-24T10:55:17;102415.06;;;26.52;100.00
66273;BME280;58450;52.150;4.466;2023-06-24T10:57:45;102409.44;;;26.69;100.00
66273;BME280;58450;52.150;4.466;2023-06-24T11:00:15;102398.22;;;26.76;100.00
66273;BME280;58450;52.150;4.466;2023-06-24T11:02:43;102399.50;;;27.51;99.68
66273;BME280;58450;52.150;4.466;2023-06-24T11:05:11;102410.66;;;27.28;98.11
66273;BME280;58450;52.150;4.466;2023-06-24T11:07:39;102406.78;;;26.52;100.00
66273;BME280;58450;52.150;4.466;2023-06-24T11:10:09;102403.38;;;26.45;100.00
66273;BME280;58450;52.150;4.466;2023-06-24T11:12:39;102405.28;;;26.89;100.00
66273;BME280;58450;52.150;4.466;2023-06-24T11:15:09;102404.41;;;26.83;100.00
66273;BME280;58450;52.150;4.466;2023-06-24T11:17:39;102408.88;;;25.66;100.00
66273;BME280;58450;52.150;4.466;2023-06-24T11:20:09;102395.16;;;26.28;100.00
66273;BME280;58450;52.150;4.466;2023-06-24T11:22:39;102399.28;;;26.48;100.00
66273;BME280;58450;52.150;4.466;2023-06-24T11:25:14;102400.09;;;26.26;100.00
66273;BME280;58450;52.150;4.466;2023-06-24T11:27:43;102392.06;;;25.85;100.00
66273;BME280;58450;52.150;4.466;2023-06-24T11:30:11;102405.59;;;26.04;100.00
66273;BME280;58450;52.150;4.466;2023-06-24T11:32:42;102405.63;;;26.48;100.00
66273;BME280;58450;52.150;4.466;2023-06-24T11:35:12;102402.13;;;26.58;100.00
66273;BME280;58450;52.150;4.466;2023-06-24T11:37:41;102398.47;;;26.75;100.00
66273;BME280;58450;52.150;4.466;2023-06-24T11:40:11;102404.25;;;26.29;100.00
66273;BME280;58450;52.150;4.466;2023-06-24T11:42:42;102397.59;;;25.51;100.00
66273;BME280;58450;52.150;4.466;2023-06-24T11:45:11;102401.00;;;25.41;100.00
66273;BME280;58450;52.150;4.466;2023-06-24T11:47:42;102398.41;;;24.88;100.00
66273;BME280;58450;52.150;4.466;2023-06-24T11:50:10;102393.47;;;25.36;100.00
66273;BME280;58450;52.150;4.466;2023-06-24T11:52:39;102397.03;;;25.20;100.00
66273;BME280;58450;52.150;4.466;2023-06-24T11:55:14;102407.03;;;25.55;100.00
66273;BME280;58450;52.150;4.466;2023-06-24T11:57:47;102393.16;;;25.84;100.00
66273;BME280;58450;52.150;4.466;2023-06-24T12:00:22;102397.94;;;25.72;100.00
66273;BME280;58450;52.150;4.466;2023-06-24T12:02:54;102392.06;;;25.85;100.00
66273;BME280;58450;52.150;4.466;2023-06-24T12:05:25;102393.88;;;26.36;100.00
66273;BME280;58450;52.150;4.466;2023-06-24T12:07:55;102384.06;;;26.23;100.00
66273;BME280;58450;52.150;4.466;2023-06-24T12:10:27;102389.16;;;26.14;100.00
66273;BME280;58450;52.150;4.466;2023-06-24T12:12:56;102376.63;;;25.84;100.00
66273;BME280;58450;52.150;4.466;2023-06-24T12:15:25;102382.88;;;26.86;100.00
66273;BME280;58450;52.150;4.466;2023-06-24T12:17:54;102381.28;;;26.90;100.00
66273;BME280;58450;52.150;4.466;2023-06-24T12:20:23;102375.56;;;27.34;99.11
66273;BME280;58450;52.150;4.466;2023-06-24T12:22:52;102387.22;;;27.74;98.21
66273;BME280;58450;52.150;4.466;2023-06-24T12:25:19;102377.03;;;27.80;96.01
66273;BME280;58450;52.150;4.466;2023-06-24T12:27:47;102381.28;;;27.22;97.28
66273;BME280;58450;52.150;4.466;2023-06-24T12:30:14;102384.53;;;27.84;95.27
66273;BME280;58450;52.150;4.466;2023-06-24T12:32:43;102387.81;;;28.24;92.42
66273;BME280;58450;52.150;4.466;2023-06-24T12:35:12;102380.50;;;28.08;94.57
66273;BME280;58450;52.150;4.466;2023-06-24T12:37:40;102373.59;;;28.84;91.85
66273;BME280;58450;52.150;4.466;2023-06-24T12:40:08;102375.84;;;29.08;89.01
66273;BME280;58450;52.150;4.466;2023-06-24T12:42:36;102375.25;;;28.85;88.06
66273;BME280;58450;52.150;4.466;2023-06-24T12:45:04;102377.22;;;29.31;87.60
66273;BME280;58450;52.150;4.466;2023-06-24T12:47:32;102366.13;;;29.37;87.29
66273;BME280;58450;52.150;4.466;2023-06-24T12:50:00;102370.03;;;29.15;87.20
66273;BME280;58450;52.150;4.466;2023-06-24T12:52:33;102369.13;;;27.99;91.34